METAR KMQI 192350Z AUTO 02008KT 10SM RA BKN049 OVC080 09/07 A3010 RMK AO2 P0007 
METAR KMQI 192330Z AUTO 02008KT 7SM RA SCT020 BKN049 OVC080 09/07 A3006 RMK AO2 P0005 
METAR KMQI 192310Z AUTO 04009G14KT 10SM RA SCT022 BKN037 OVC060 07/06 A3005 RMK AO2 P0002 
METAR KMQI 192250Z AUTO 02008KT 7SM RA SCT015 BKN027 OVC038 07/06 A3008 RMK AO2 P0010 
METAR KMQI 192230Z AUTO 03009KT 7SM RA SCT017 BKN035 OVC049 07/05 A3008 RMK AO2 P0007 
METAR KMQI 192210Z AUTO 01011G14KT 7SM RA BKN015 OVC021 08/06 A3010 RMK AO2 P0003 
METAR KMQI 192150Z AUTO 03007KT 7SM RA SCT013 BKN023 OVC050 07/05 A3009 RMK AO2 P0011 
METAR KMQI 192130Z AUTO 03006KT 7SM RA SCT012 OVC022 07/06 A3009 RMK AO2 P0009 
METAR KMQI 192110Z AUTO 03006KT 7SM RA SCT022 BKN027 OVC035 07/05 A3011 RMK AO2 P0003 
METAR KMQI 192050Z AUTO 02008KT 7SM RA BKN023 OVC035 07/05 A3011 RMK AO2 P0006 
METAR KMQI 192030Z AUTO 03008KT 7SM RA BKN020 OVC025 07/05 A3010 RMK AO2 P0003 
METAR KMQI 192010Z AUTO 02008G14KT 7SM -RA BKN020 OVC027 07/05 A3010 RMK AO2 P0001 
METAR KMQI 191950Z AUTO 03007KT 7SM -RA SCT020 OVC027 07/05 A3010 RMK AO2 P0007 
METAR KMQI 191930Z AUTO 03008KT 5SM -RA BKN022 OVC028 07/05 A3011 RMK AO2 P0005 
METAR KMQI 191910Z AUTO 02010G15KT 5SM RA SCT017 BKN023 OVC041 07/05 A3013 RMK AO2 P0002 
METAR KMQI 191850Z AUTO 01012KT 5SM RA SCT023 BKN046 OVC055 07/05 A3013 RMK AO2 P0006 
METAR KMQI 191830Z AUTO 02010KT 5SM RA SCT017 BKN045 OVC055 08/06 A3013 RMK AO2 P0004 
METAR KMQI 191810Z AUTO 01010KT 5SM RA SCT018 OVC028 09/07 A3014 RMK AO2 P0002 
METAR KMQI 191750Z AUTO 36010KT 5SM RA SCT018 BKN024 OVC031 09/06 A3014 RMK AO2 P0004 
METAR KMQI 191730Z AUTO 01008KT 7SM RA SCT023 BKN029 OVC050 09/06 A3016 RMK AO2 P0001 
METAR KMQI 191710Z AUTO 36007KT 10SM -DZ SCT028 OVC050 09/06 A3015 RMK AO2 P0000 
METAR KMQI 191710Z AUTO 36007KT 10SM -DZ SCT028 OVC050 09/06 A3015 RMK AO2 P0000 
METAR KMQI 191650Z AUTO 02006KT 7SM -RA SCT028 SCT046 OVC050 09/06 A3016 RMK AO2 P0003 
METAR KMQI 191630Z AUTO 01006KT 7SM -RA SCT026 SCT036 OVC055 09/06 A3018 RMK AO2 P0002 
METAR KMQI 191610Z AUTO 01006KT 5SM -RA SCT028 BKN047 OVC055 09/06 A3018 RMK AO2 P0001 
METAR KMQI 191550Z AUTO 35003KT 7SM -RA SCT041 SCT046 OVC055 09/06 A3019 RMK AO2 P0002 
METAR KMQI 191530Z AUTO 34003KT 7SM -RA OVC055 09/06 A3020 RMK AO2 P0001 
METAR KMQI 191510Z AUTO 34003KT 10SM -RA OVC055 09/06 A3020 RMK AO2 P0000 
METAR KMQI 191450Z AUTO 35004KT 10SM -RA OVC065 09/05 A3019 RMK AO2 P0000 
METAR KMQI 191430Z AUTO 36005KT 10SM -RA BKN070 BKN090 08/05 A3018 RMK AO2 P0000 
METAR KMQI 191410Z AUTO 36006KT 10SM -RA SCT040 SCT046 BKN070 07/03 A3017 RMK AO2 P0000 
METAR KMQI 191350Z AUTO 35008KT 10SM -RA SCT049 OVC055 07/03 A3019 RMK AO2 P0002 
METAR KMQI 191330Z AUTO 35007KT 10SM -RA OVC055 07/03 A3020 RMK AO2 P0001 
METAR KMQI 191310Z AUTO 34007KT 10SM -RA OVC055 07/01 A3020 RMK AO2 P0001 
METAR KMQI 191250Z AUTO 35008KT 10SM -RA OVC055 07/00 A3019 RMK AO2 P0000 
METAR KMQI 191230Z AUTO 35008KT 10SM -RA BKN055 BKN065 OVC080 07/00 A3018 RMK AO2 P0000 
METAR KMQI 191210Z AUTO 35007KT 10SM -RA SCT055 SCT070 BKN080 09/02 A3016 RMK AO2 P0000 
METAR KMQI 191150Z AUTO 34005KT 10SM -RA SCT060 BKN070 OVC080 09/02 A3017 RMK AO2 P0000 
METAR KMQI 191130Z AUTO 33003KT 10SM -RA BKN070 BKN075 BKN085 09/00 A3017 RMK AO2 P0000 
METAR KMQI 191110Z AUTO 33005KT 10SM SCT065 BKN085 09/00 A3017 RMK AO2 
METAR KMQI 191050Z AUTO 32004KT 10SM BKN065 OVC085 09/00 A3017 RMK AO2 
METAR KMQI 191030Z AUTO 32007KT 10SM OVC065 09/00 A3017 RMK AO2 
METAR KMQI 191010Z AUTO 29005KT 10SM -DZ OVC065 09/03 A3018 RMK AO2 P0000 
METAR KMQI 190950Z AUTO 27005KT 10SM -RA OVC065 09/03 A3018 RMK AO2 P0000 
METAR KMQI 190930Z AUTO 26005KT 10SM OVC065 09/02 A3017 RMK AO2 
METAR KMQI 190910Z AUTO 28005KT 10SM -DZ OVC065 09/02 A3016 RMK AO2 P0000 
METAR KMQI 190850Z AUTO 29004KT 10SM -RA SCT065 OVC070 09/02 A3015 RMK AO2 P0000 
METAR KMQI 190830Z AUTO 29004KT 10SM -RA OVC080 09/02 A3016 RMK AO2 P0000 
METAR KMQI 190810Z AUTO 30006KT 10SM -RA OVC080 09/02 A3017 RMK AO2 P0000 
METAR KMQI 190750Z AUTO 30005KT 10SM -RA OVC080 09/02 A3018 RMK AO2 P0000 
METAR KMQI 190730Z AUTO 29004KT 10SM OVC080 09/01 A3019 RMK AO2 
METAR KMQI 190710Z AUTO 27007KT 10SM -DZ OVC080 09/00 A3017 RMK AO2 P0000 
METAR KMQI 190650Z AUTO 28006KT 10SM OVC080 09/00 A3017 RMK AO2 
METAR KMQI 190630Z AUTO 28007KT 10SM BKN080 09/00 A3017 RMK AO2 
METAR KMQI 190610Z AUTO 30004KT 10SM CLR 09/02 A3015 RMK AO2 
METAR KMQI 190550Z AUTO 28003KT 10SM CLR 09/02 A3014 RMK AO2 
METAR KMQI 190530Z AUTO 27004KT 10SM SCT120 09/02 A3014 RMK AO2 
METAR KMQI 190510Z AUTO 28003KT 10SM SCT120 09/02 A3014 RMK AO2 
METAR KMQI 190450Z AUTO 25004KT 10SM CLR 09/02 A3016 RMK AO2 
METAR KMQI 190430Z AUTO 24005KT 10SM SCT120 09/01 A3015 RMK AO2 
METAR KMQI 190410Z AUTO 23005KT 10SM CLR 09/02 A3013 RMK AO2 
METAR KMQI 190350Z AUTO 24004KT 10SM SCT080 SCT090 09/02 A3014 RMK AO2 
METAR KMQI 190330Z AUTO 26006KT 10SM BKN080 BKN090 09/02 A3016 RMK AO2 
METAR KMQI 190310Z AUTO 26005KT 10SM BKN080 OVC090 09/01 A3018 RMK AO2 
METAR KMQI 190250Z AUTO 28006KT 10SM OVC090 09/01 A3018 RMK AO2 
METAR KMQI 190230Z AUTO 27005KT 10SM BKN090 BKN110 09/02 A3017 RMK AO2 
METAR KMQI 190210Z AUTO 25005KT 10SM CLR 09/03 A3018 RMK AO2 
METAR KMQI 190150Z AUTO 26004KT 10SM CLR 09/03 A3017 RMK AO2 
METAR KMQI 190130Z AUTO 29003KT 10SM CLR 09/02 A3018 RMK AO2 
METAR KMQI 190110Z AUTO 28004KT 10SM CLR 09/03 A3020 RMK AO2 
METAR KMQI 190050Z AUTO 30003KT 10SM SCT120 09/03 A3018 RMK AO2 
METAR KMQI 190030Z AUTO 00000KT 10SM CLR 09/04 A3017 RMK AO2 
METAR KMQI 190010Z AUTO 00000KT 10SM CLR 09/05 A3016 RMK AO2 
METAR KMQI 182350Z AUTO 00000KT 10SM CLR 08/06 A3014 RMK AO2 
METAR KMQI 182330Z AUTO 00000KT 10SM CLR 09/04 A3015 RMK AO2 
METAR KMQI 182310Z AUTO 00000KT 10SM CLR 09/04 A3017 RMK AO2 
METAR KMQI 182250Z AUTO 00000KT 10SM CLR 09/04 A3018 RMK AO2 
METAR KMQI 182230Z AUTO 00000KT 10SM CLR 09/04 A3017 RMK AO2 
METAR KMQI 182210Z AUTO 00000KT 10SM CLR 09/03 A3017 RMK AO2 
METAR KMQI 182150Z AUTO 00000KT 10SM CLR 09/03 A3018 RMK AO2 
METAR KMQI 182130Z AUTO 00000KT 10SM CLR 09/03 A3018 RMK AO2 
METAR KMQI 182110Z AUTO 00000KT 10SM CLR 09/02 A3018 RMK AO2 
METAR KMQI 182050Z AUTO 30004KT 10SM CLR 09/02 A3019 RMK AO2 
METAR KMQI 182030Z AUTO 33004KT 10SM CLR 09/02 A3018 RMK AO2 
METAR KMQI 182010Z AUTO 30003KT 10SM CLR 10/02 A3016 RMK AO2 
METAR KMQI 181950Z AUTO 34005KT 10SM CLR 10/02 A3015 RMK AO2 
METAR KMQI 181930Z AUTO 36006KT 10SM CLR 10/02 A3017 RMK AO2 
METAR KMQI 181910Z AUTO 32004KT 10SM CLR 10/02 A3018 RMK AO2 
METAR KMQI 181850Z AUTO 35005KT 10SM CLR 10/02 A3017 RMK AO2 
METAR KMQI 181830Z AUTO 33003KT 10SM CLR 10/03 A3018 RMK AO2 
METAR KMQI 181810Z AUTO 33005KT 10SM CLR 10/03 A3018 RMK AO2 
METAR KMQI 181750Z AUTO 33007KT 10SM CLR 10/02 A3018 RMK AO2 
METAR KMQI 181730Z AUTO 34008KT 10SM CLR 10/03 A3019 RMK AO2 
METAR KMQI 181710Z AUTO 35008KT 10SM CLR 10/03 A3020 RMK AO2 
METAR KMQI 181650Z AUTO 33008KT 10SM CLR 10/03 A3021 RMK AO2 
METAR KMQI 181630Z AUTO 32007KT 10SM CLR 10/03 A3022 RMK AO2 
METAR KMQI 181610Z AUTO 35010KT 10SM CLR 09/03 A3023 RMK AO2 
METAR KMQI 181550Z AUTO 32007KT 10SM CLR 09/03 A3024 RMK AO2